Time;durP1;ratioP1;P1;durP2;ratioP2;P2;SDS_P1;SDS_P2;PMS_P1;PMS_P2;Temp;Humidity;BMP_temperature;BMP_pressure;BME280_temperature;BME280_humidity;BME280_pressure;Samples;Min_cycle;Max_cycle;Signal;HPM_P1;HPM_P2
2024/04/20 00:00:12;;;;;;;7.68;3.40;;;;;;;;;;5409253;26;20024;-68
2024/04/20 00:02:38;;;;;;;3.88;2.40;;;;;;;;;;5407023;26;20031;-67
2024/04/20 00:05:05;;;;;;;4.80;2.22;;;;;;;;;;5409795;26;20401;-67
2024/04/20 00:07:31;;;;;;;9.65;2.42;;;;;;;;;;5397609;26;20032;-67
2024/04/20 00:09:57;;;;;;;6.00;2.50;;;;;;;;;;5383193;26;20380;-66
2024/04/20 00:12:24;;;;;;;5.32;2.83;;;;;;;;;;5410473;26;20044;-67
2024/04/20 00:14:51;;;;;;;6.63;2.35;;;;;;;;;;5408622;26;20027;-67
2024/04/20 00:17:17;;;;;;;6.57;2.13;;;;;;;;;;5410205;26;20384;-67
2024/04/20 00:19:44;;;;;;;6.05;2.45;;;;;;;;;;5407711;26;20023;-67
2024/04/20 00:22:11;;;;;;;4.93;2.33;;;;;;;;;;5408835;26;20031;-67
2024/04/20 00:24:38;;;;;;;4.88;2.20;;;;;;;;;;5380172;26;20043;-67
2024/04/20 00:27:06;;;;;;;7.47;2.60;;;;;;;;;;5370032;26;20031;-67
2024/04/20 00:29:32;;;;;;;9.00;3.10;;;;;;;;;;5412505;26;20027;-66
2024/04/20 00:31:59;;;;;;;5.55;2.60;;;;;;;;;;5381334;26;20032;-66
2024/04/20 00:34:28;;;;;;;5.78;2.92;;;;;;;;;;5378850;26;20031;-67
2024/04/20 00:36:54;;;;;;;8.52;2.72;;;;;;;;;;5408020;26;20028;-67
2024/04/20 00:39:21;;;;;;;7.22;3.10;;;;;;;;;;5409971;26;21217;-67
2024/04/20 00:41:47;;;;;;;7.00;3.05;;;;;;;;;;5404382;26;20023;-66
2024/04/20 00:44:13;;;;;;;6.90;2.90;;;;;;;;;;5391489;26;20039;-67
2024/04/20 00:46:41;;;;;;;9.32;3.03;;;;;;;;;;5390505;26;20036;-66
2024/04/20 00:49:08;;;;;;;6.15;2.83;;;;;;;;;;5403005;26;20031;-67
2024/04/20 00:51:35;;;;;;;9.65;2.85;;;;;;;;;;5376979;26;20386;-66
2024/04/20 00:54:03;;;;;;;5.45;2.90;;;;;;;;;;5378052;26;20039;-67
2024/04/20 00:56:31;;;;;;;7.53;2.78;;;;;;;;;;5410107;26;20047;-67
2024/04/20 00:58:57;;;;;;;6.88;2.70;;;;;;;;;;5411350;26;20883;-67
2024/04/20 01:01:24;;;;;;;9.63;3.15;;;;;;;;;;5408755;26;20024;-66
2024/04/20 01:03:50;;;;;;;9.38;2.70;;;;;;;;;;5409054;26;20028;-67
2024/04/20 01:06:16;;;;;;;8.27;2.97;;;;;;;;;;5377817;26;21706;-66
2024/04/20 01:08:43;;;;;;;8.60;2.70;;;;;;;;;;5391426;26;20037;-68
2024/04/20 01:11:11;;;;;;;7.82;2.42;;;;;;;;;;5407464;26;20024;-67
2024/04/20 01:13:37;;;;;;;4.28;2.65;;;;;;;;;;5406567;26;20031;-66
2024/04/20 01:16:03;;;;;;;5.45;2.53;;;;;;;;;;5409963;26;20390;-68
2024/04/20 01:18:29;;;;;;;7.32;2.50;;;;;;;;;;5411247;26;20048;-67
2024/04/20 01:20:56;;;;;;;6.88;2.85;;;;;;;;;;5409063;26;20551;-68
2024/04/20 01:23:23;;;;;;;3.63;2.33;;;;;;;;;;5351610;26;20031;-69
2024/04/20 01:25:50;;;;;;;8.05;2.33;;;;;;;;;;5405530;26;20063;-69
2024/04/20 01:28:18;;;;;;;4.25;2.22;;;;;;;;;;5381599;26;19999;-68
2024/04/20 01:30:44;;;;;;;9.05;2.42;;;;;;;;;;5417842;26;20721;-69
2024/04/20 01:33:10;;;;;;;11.32;2.65;;;;;;;;;;5378104;26;20491;-69
2024/04/20 01:35:40;;;;;;;8.90;2.78;;;;;;;;;;5378246;26;20019;-69
2024/04/20 01:38:07;;;;;;;6.45;2.47;;;;;;;;;;5351467;26;20029;-69
2024/04/20 01:40:34;;;;;;;8.57;2.80;;;;;;;;;;5390124;26;20032;-68
2024/04/20 01:43:00;;;;;;;4.78;2.50;;;;;;;;;;5407808;26;20055;-69
2024/04/20 01:45:26;;;;;;;9.40;2.83;;;;;;;;;;5411786;26;20495;-68
2024/04/20 01:47:52;;;;;;;10.25;2.85;;;;;;;;;;5408831;26;20036;-68
2024/04/20 01:50:19;;;;;;;4.82;2.42;;;;;;;;;;5382779;26;20024;-68
2024/04/20 01:52:45;;;;;;;9.93;2.40;;;;;;;;;;5407373;26;20498;-68
2024/04/20 01:55:11;;;;;;;10.90;2.53;;;;;;;;;;5347193;26;20572;-68
2024/04/20 01:57:37;;;;;;;8.27;2.63;;;;;;;;;;5402691;26;20031;-68
2024/04/20 02:00:04;;;;;;;10.07;2.75;;;;;;;;;;5384981;26;20023;-69
2024/04/20 02:02:31;;;;;;;12.65;3.00;;;;;;;;;;5407937;26;20039;-68
2024/04/20 02:04:57;;;;;;;4.75;2.20;;;;;;;;;;5349400;26;20488;-68
2024/04/20 02:07:23;;;;;;;8.60;2.80;;;;;;;;;;5330597;26;20032;-68
2024/04/20 02:09:50;;;;;;;8.10;2.83;;;;;;;;;;5381466;26;20380;-68
2024/04/20 02:12:16;;;;;;;11.40;3.05;;;;;;;;;;5352585;26;20024;-68
2024/04/20 02:14:42;;;;;;;7.88;2.40;;;;;;;;;;5404528;26;20031;-68
2024/04/20 02:17:09;;;;;;;10.35;3.67;;;;;;;;;;5351382;26;20040;-69
2024/04/20 02:19:35;;;;;;;6.47;2.38;;;;;;;;;;5398361;26;20027;-66
2024/04/20 02:22:01;;;;;;;7.70;2.85;;;;;;;;;;5409285;26;20036;-66
2024/04/20 02:24:27;;;;;;;8.38;2.60;;;;;;;;;;5408056;26;20045;-66
2024/04/20 02:26:53;;;;;;;7.05;2.33;;;;;;;;;;5404147;26;20487;-68
2024/04/20 02:29:19;;;;;;;3.83;2.05;;;;;;;;;;5412683;26;20617;-65
2024/04/20 02:31:45;;;;;;;8.45;2.28;;;;;;;;;;5408953;26;20023;-66
2024/04/20 02:34:11;;;;;;;9.50;2.13;;;;;;;;;;5414398;26;20051;-66
2024/04/20 02:36:37;;;;;;;5.07;2.50;;;;;;;;;;5409723;26;20032;-66
2024/04/20 02:39:03;;;;;;;6.75;2.35;;;;;;;;;;5365918;26;20024;-66
2024/04/20 02:41:30;;;;;;;9.93;2.65;;;;;;;;;;5386699;26;20499;-66
2024/04/20 02:43:56;;;;;;;7.60;2.47;;;;;;;;;;5388005;26;20036;-66
2024/04/20 02:46:22;;;;;;;6.63;2.65;;;;;;;;;;5358748;26;20032;-66
2024/04/20 02:48:48;;;;;;;9.60;2.42;;;;;;;;;;5390356;26;20040;-65
2024/04/20 02:51:14;;;;;;;7.13;2.50;;;;;;;;;;5412136;26;20499;-67
2024/04/20 02:53:40;;;;;;;7.72;2.92;;;;;;;;;;5407794;26;20379;-67
2024/04/20 02:56:06;;;;;;;6.88;2.63;;;;;;;;;;5411117;26;20024;-65
2024/04/20 02:58:32;;;;;;;8.05;2.47;;;;;;;;;;5412766;26;20067;-67
2024/04/20 03:01:00;;;;;;;7.03;2.33;;;;;;;;;;5411809;26;20039;-66
2024/04/20 03:03:29;;;;;;;5.32;2.10;;;;;;;;;;5413297;26;20042;-66
2024/04/20 03:05:55;;;;;;;6.70;2.90;;;;;;;;;;5410828;26;20032;-66
2024/04/20 03:08:22;;;;;;;8.70;2.45;;;;;;;;;;5412872;26;20031;-67
2024/04/20 03:10:48;;;;;;;5.45;2.55;;;;;;;;;;5408919;26;20031;-67
2024/04/20 03:13:14;;;;;;;9.07;2.67;;;;;;;;;;5411717;26;20375;-67
2024/04/20 03:15:42;;;;;;;9.10;3.30;;;;;;;;;;5410210;26;20043;-66
2024/04/20 03:18:11;;;;;;;6.10;2.50;;;;;;;;;;5413928;26;20027;-66
2024/04/20 03:20:38;;;;;;;10.95;3.08;;;;;;;;;;5407938;26;20039;-67
2024/04/20 03:23:04;;;;;;;6.05;2.42;;;;;;;;;;5398012;26;20035;-67
2024/04/20 03:25:30;;;;;;;11.95;2.60;;;;;;;;;;5412191;26;20040;-66
2024/04/20 03:27:56;;;;;;;6.07;2.75;;;;;;;;;;5409597;26;20033;-66
2024/04/20 03:30:22;;;;;;;12.20;2.88;;;;;;;;;;5410331;26;20518;-66
2024/04/20 03:32:48;;;;;;;10.65;2.28;;;;;;;;;;5405832;26;20024;-66
2024/04/20 03:35:14;;;;;;;10.30;2.08;;;;;;;;;;5403448;26;20023;-66
2024/04/20 03:37:40;;;;;;;9.75;2.40;;;;;;;;;;5407941;26;20023;-67
2024/04/20 03:40:07;;;;;;;4.72;1.90;;;;;;;;;;5413369;26;20032;-68
2024/04/20 03:42:33;;;;;;;5.63;2.40;;;;;;;;;;5408170;26;20024;-67
2024/04/20 03:44:59;;;;;;;6.97;2.22;;;;;;;;;;5409795;26;20032;-66
2024/04/20 03:47:25;;;;;;;12.45;2.53;;;;;;;;;;5411184;26;20027;-66
2024/04/20 03:49:52;;;;;;;5.40;1.95;;;;;;;;;;5411205;26;20059;-66
2024/04/20 03:52:18;;;;;;;8.25;2.53;;;;;;;;;;5400170;26;20047;-68
2024/04/20 03:54:44;;;;;;;7.50;2.17;;;;;;;;;;5410662;26;20394;-66
2024/04/20 03:57:10;;;;;;;10.00;2.05;;;;;;;;;;5381567;26;20031;-65
2024/04/20 03:59:36;;;;;;;5.50;2.60;;;;;;;;;;5408646;26;20036;-65
2024/04/20 04:02:02;;;;;;;8.05;2.28;;;;;;;;;;5410298;26;20491;-65
2024/04/20 04:04:28;;;;;;;8.20;2.10;;;;;;;;;;5412106;26;20023;-66
2024/04/20 04:06:54;;;;;;;9.57;2.38;;;;;;;;;;5406082;26;20037;-66
2024/04/20 04:09:20;;;;;;;7.55;2.25;;;;;;;;;;5381784;26;20032;-66
2024/04/20 04:11:46;;;;;;;13.55;3.10;;;;;;;;;;5411811;26;20380;-69
2024/04/20 04:14:13;;;;;;;5.93;2.28;;;;;;;;;;5421546;26;20503;-66
2024/04/20 04:16:39;;;;;;;8.05;2.22;;;;;;;;;;5409929;26;20403;-66
2024/04/20 04:19:05;;;;;;;9.60;2.38;;;;;;;;;;5410761;26;20043;-66
2024/04/20 04:21:34;;;;;;;9.13;2.35;;;;;;;;;;5368413;26;20031;-67
2024/04/20 04:24:00;;;;;;;7.85;2.50;;;;;;;;;;5409790;26;20055;-67
2024/04/20 04:26:27;;;;;;;8.20;2.42;;;;;;;;;;5406150;26;20557;-67
2024/04/20 04:28:53;;;;;;;10.85;3.90;;;;;;;;;;5409438;26;19995;-69
2024/04/20 04:31:24;;;;;;;9.13;3.10;;;;;;;;;;5420545;26;20028;-67
2024/04/20 04:33:50;;;;;;;4.57;1.95;;;;;;;;;;5411557;26;20036;-66
2024/04/20 04:36:16;;;;;;;11.02;2.30;;;;;;;;;;5411087;26;20383;-66
2024/04/20 04:38:42;;;;;;;7.75;2.00;;;;;;;;;;5410844;26;20032;-66
2024/04/20 04:41:08;;;;;;;8.05;2.15;;;;;;;;;;5395502;26;20032;-67
2024/04/20 04:43:36;;;;;;;5.15;2.30;;;;;;;;;;5395311;26;20027;-66
2024/04/20 04:46:03;;;;;;;5.72;2.97;;;;;;;;;;5392139;26;20458;-66
2024/04/20 04:48:29;;;;;;;9.05;2.92;;;;;;;;;;5359013;26;20032;-66
2024/04/20 04:50:55;;;;;;;6.80;2.15;;;;;;;;;;5418296;26;20039;-66
2024/04/20 04:53:22;;;;;;;6.57;2.20;;;;;;;;;;5412454;26;20027;-65
2024/04/20 04:55:48;;;;;;;5.38;2.35;;;;;;;;;;5408667;26;20040;-66
2024/04/20 04:58:14;;;;;;;7.22;2.50;;;;;;;;;;5411923;26;20039;-66
2024/04/20 05:00:40;;;;;;;8.15;2.50;;;;;;;;;;5420811;26;20375;-67
2024/04/20 05:03:06;;;;;;;7.85;3.28;;;;;;;;;;5411536;26;20031;-64
2024/04/20 05:05:32;;;;;;;6.22;3.05;;;;;;;;;;5413271;26;20711;-66
2024/04/20 05:07:58;;;;;;;8.48;3.35;;;;;;;;;;5401995;26;20035;-63
2024/04/20 05:10:27;;;;;;;6.75;2.92;;;;;;;;;;5380333;26;20027;-63
2024/04/20 05:12:53;;;;;;;9.02;2.40;;;;;;;;;;5410885;26;20035;-63
2024/04/20 05:15:19;;;;;;;7.50;2.38;;;;;;;;;;5411168;26;20039;-62
2024/04/20 05:17:45;;;;;;;10.88;3.60;;;;;;;;;;5409900;26;20035;-64
2024/04/20 05:20:12;;;;;;;5.03;2.40;;;;;;;;;;5415636;26;20035;-64
2024/04/20 05:22:39;;;;;;;7.88;2.88;;;;;;;;;;5411428;26;20382;-64
2024/04/20 05:25:05;;;;;;;7.20;3.15;;;;;;;;;;5409235;26;20035;-66
2024/04/20 05:27:31;;;;;;;4.10;2.60;;;;;;;;;;5408863;26;20031;-65
2024/04/20 05:29:57;;;;;;;4.03;2.33;;;;;;;;;;5407495;26;20941;-64
2024/04/20 05:32:23;;;;;;;5.88;3.20;;;;;;;;;;5413568;26;20635;-65
2024/04/20 05:34:49;;;;;;;6.07;3.42;;;;;;;;;;5422595;26;20032;-65
2024/04/20 05:37:15;;;;;;;9.57;3.08;;;;;;;;;;5409279;26;20007;-66
2024/04/20 05:39:45;;;;;;;6.00;3.30;;;;;;;;;;5415625;26;20413;-65
2024/04/20 05:42:12;;;;;;;8.38;2.83;;;;;;;;;;5415078;26;20028;-64
2024/04/20 05:44:38;;;;;;;5.97;3.08;;;;;;;;;;5412419;26;20388;-64
2024/04/20 05:47:04;;;;;;;7.75;3.50;;;;;;;;;;5405826;26;20024;-65
2024/04/20 05:49:31;;;;;;;6.50;3.25;;;;;;;;;;5379836;26;20009;-64
2024/04/20 05:51:57;;;;;;;7.15;2.67;;;;;;;;;;5411147;26;20024;-66
2024/04/20 05:54:23;;;;;;;10.50;3.85;;;;;;;;;;5408616;26;20858;-65
2024/04/20 05:56:49;;;;;;;14.48;3.95;;;;;;;;;;5405974;26;20019;-65
2024/04/20 05:59:15;;;;;;;6.57;3.63;;;;;;;;;;5409013;26;20023;-65
2024/04/20 06:01:42;;;;;;;5.80;3.40;;;;;;;;;;5410059;26;20503;-64
2024/04/20 06:04:08;;;;;;;11.75;5.53;;;;;;;;;;5398866;26;20027;-64
2024/04/20 06:06:34;;;;;;;13.95;4.55;;;;;;;;;;5378773;26;20035;-66
2024/04/20 06:09:00;;;;;;;6.32;3.63;;;;;;;;;;5408199;26;20000;-64
2024/04/20 06:11:26;;;;;;;9.55;4.32;;;;;;;;;;5400070;26;20832;-64
2024/04/20 06:13:52;;;;;;;13.00;5.15;;;;;;;;;;5373533;26;20003;-66
2024/04/20 06:16:18;;;;;;;13.00;4.78;;;;;;;;;;5410436;26;20017;-64
2024/04/20 06:18:45;;;;;;;8.70;4.05;;;;;;;;;;5423587;26;20393;-67
2024/04/20 06:21:11;;;;;;;11.20;4.63;;;;;;;;;;5392155;26;20023;-65
2024/04/20 06:23:37;;;;;;;5.68;3.85;;;;;;;;;;5383968;26;20037;-66
2024/04/20 06:26:03;;;;;;;15.07;7.75;;;;;;;;;;5418590;26;20035;-65
2024/04/20 06:28:30;;;;;;;14.45;5.57;;;;;;;;;;5417336;26;19998;-64
2024/04/20 06:30:56;;;;;;;9.02;5.05;;;;;;;;;;5424289;26;20031;-65
2024/04/20 06:33:24;;;;;;;10.25;4.68;;;;;;;;;;5390541;26;20032;-64
2024/04/20 06:35:50;;;;;;;8.43;4.20;;;;;;;;;;5411272;26;19998;-64
2024/04/20 06:38:16;;;;;;;9.63;4.78;;;;;;;;;;5415991;26;20039;-63
2024/04/20 06:40:42;;;;;;;9.60;4.70;;;;;;;;;;5400974;26;20443;-64
2024/04/20 06:43:08;;;;;;;10.40;4.03;;;;;;;;;;5400384;26;20040;-65
2024/04/20 06:45:36;;;;;;;9.77;4.25;;;;;;;;;;5416903;26;20027;-62
2024/04/20 06:48:02;;;;;;;9.73;4.18;;;;;;;;;;5402713;26;20724;-64
2024/04/20 06:50:29;;;;;;;8.85;4.35;;;;;;;;;;5414751;26;20035;-64
2024/04/20 06:52:55;;;;;;;6.00;3.70;;;;;;;;;;5407671;26;20003;-65
2024/04/20 06:55:21;;;;;;;9.15;3.67;;;;;;;;;;5414936;26;19999;-65
2024/04/20 06:57:47;;;;;;;7.68;4.03;;;;;;;;;;5410733;26;20490;-65
2024/04/20 07:00:14;;;;;;;9.20;4.72;;;;;;;;;;5422455;26;20039;-64
2024/04/20 07:02:40;;;;;;;9.02;3.83;;;;;;;;;;5419703;26;20031;-64
2024/04/20 07:05:06;;;;;;;10.60;3.97;;;;;;;;;;5417298;26;20023;-64
2024/04/20 07:07:34;;;;;;;7.63;4.15;;;;;;;;;;5363685;26;20048;-63
2024/04/20 07:10:00;;;;;;;9.82;3.75;;;;;;;;;;5349510;26;20032;-64
2024/04/20 07:12:26;;;;;;;8.55;3.50;;;;;;;;;;5413080;26;20039;-63
2024/04/20 07:14:52;;;;;;;10.60;3.95;;;;;;;;;;5402051;26;20036;-64
2024/04/20 07:17:18;;;;;;;8.02;3.70;;;;;;;;;;5406991;26;20000;-63
2024/04/20 07:19:44;;;;;;;8.27;3.45;;;;;;;;;;5406604;26;20492;-63
2024/04/20 07:22:10;;;;;;;7.90;3.85;;;;;;;;;;5411938;26;20070;-64
2024/04/20 07:24:36;;;;;;;8.50;3.92;;;;;;;;;;5409088;26;20040;-63
2024/04/20 07:27:03;;;;;;;6.38;3.40;;;;;;;;;;5406470;26;19999;-63
2024/04/20 07:29:29;;;;;;;8.88;3.30;;;;;;;;;;5373524;26;20012;-63
2024/04/20 07:31:56;;;;;;;14.93;4.10;;;;;;;;;;5373878;26;20016;-63
2024/04/20 07:34:30;;;;;;;5.85;3.58;;;;;;;;;;5407962;26;20580;-63
2024/04/20 07:36:57;;;;;;;7.85;3.30;;;;;;;;;;5411750;26;20005;-64
2024/04/20 07:39:23;;;;;;;7.68;3.47;;;;;;;;;;5414442;26;20067;-62
2024/04/20 07:41:50;;;;;;;17.75;6.25;;;;;;;;;;5402933;26;20541;-63
2024/04/20 07:44:16;;;;;;;9.45;3.60;;;;;;;;;;5403281;26;20004;-63
2024/04/20 07:46:57;;;;;;;5.65;3.00;;;;;;;;;;5383343;26;20031;-63
2024/04/20 07:49:23;;;;;;;5.63;2.83;;;;;;;;;;5413026;26;20039;-63
2024/04/20 07:51:49;;;;;;;8.45;3.53;;;;;;;;;;5419233;26;20023;-63
2024/04/20 07:54:19;;;;;;;6.00;3.58;;;;;;;;;;5413776;26;20031;-62
2024/04/20 07:56:45;;;;;;;;;;;;;;;;;;5409842;26;20019;-62
2024/04/20 07:59:11;;;;;;;7.57;4.38;;;;;;;;;;5411903;26;19953;-62
2024/04/20 08:01:37;;;;;;;8.65;4.57;;;;;;;;;;5424228;26;20063;-63
2024/04/20 08:04:03;;;;;;;10.65;3.95;;;;;;;;;;5409314;26;20047;-64
2024/04/20 08:06:29;;;;;;;9.32;4.20;;;;;;;;;;5410847;26;20028;-62
2024/04/20 08:08:55;;;;;;;11.15;5.20;;;;;;;;;;5390724;26;20370;-64
2024/04/20 08:11:22;;;;;;;16.88;6.20;;;;;;;;;;5407085;26;20483;-62
2024/04/20 08:13:48;;;;;;;8.32;5.00;;;;;;;;;;5385188;26;20031;-63
2024/04/20 08:16:14;;;;;;;12.20;5.43;;;;;;;;;;5409084;26;20515;-63
2024/04/20 08:18:40;;;;;;;10.73;4.60;;;;;;;;;;5413409;26;20470;-63
2024/04/20 08:21:06;;;;;;;6.80;3.00;;;;;;;;;;5417181;26;20027;-63
2024/04/20 08:23:32;;;;;;;9.27;3.28;;;;;;;;;;5401611;26;20354;-63
2024/04/20 08:25:58;;;;;;;5.97;3.92;;;;;;;;;;5410150;26;20692;-63
2024/04/20 08:28:24;;;;;;;5.35;3.20;;;;;;;;;;5415406;26;20032;-63
2024/04/20 08:30:50;;;;;;;6.90;3.25;;;;;;;;;;5407804;26;20035;-64
2024/04/20 08:33:16;;;;;;;6.97;3.47;;;;;;;;;;5404774;26;20376;-64
2024/04/20 08:35:42;;;;;;;13.52;3.88;;;;;;;;;;5404767;26;20506;-64
2024/04/20 08:38:09;;;;;;;10.40;3.83;;;;;;;;;;5411489;26;19999;-64
2024/04/20 08:40:37;;;;;;;11.40;3.60;;;;;;;;;;5414754;26;20036;-64
2024/04/20 08:43:04;;;;;;;6.05;3.00;;;;;;;;;;5420583;26;20027;-62
2024/04/20 08:45:33;;;;;;;5.10;2.88;;;;;;;;;;5418360;26;20027;-62
2024/04/20 08:48:00;;;;;;;5.53;3.00;;;;;;;;;;5410199;26;20483;-63
2024/04/20 08:50:29;;;;;;;4.65;2.40;;;;;;;;;;5423781;26;20027;-63
2024/04/20 08:52:59;;;;;;;8.98;2.15;;;;;;;;;;5408232;26;20023;-64
2024/04/20 08:55:26;;;;;;;5.03;2.00;;;;;;;;;;5409140;26;20051;-63
2024/04/20 08:57:53;;;;;;;8.27;2.00;;;;;;;;;;5406547;26;20008;-66
2024/04/20 09:00:19;;;;;;;2.53;2.00;;;;;;;;;;5407991;26;20040;-65
2024/04/20 09:02:46;;;;;;;4.00;2.30;;;;;;;;;;5407188;26;20044;-63
2024/04/20 09:05:12;;;;;;;2.72;1.70;;;;;;;;;;5405071;26;20031;-63
2024/04/20 09:07:39;;;;;;;4.50;2.00;;;;;;;;;;5405974;26;20035;-63
2024/04/20 09:10:05;;;;;;;3.28;2.00;;;;;;;;;;5386465;26;20037;-63
2024/04/20 09:12:31;;;;;;;4.43;2.25;;;;;;;;;;5414204;26;20051;-62
2024/04/20 09:14:58;;;;;;;8.50;3.30;;;;;;;;;;5406283;26;20051;-63
2024/04/20 09:17:24;;;;;;;4.70;2.40;;;;;;;;;;5408746;26;20043;-63
2024/04/20 09:19:53;;;;;;;3.05;2.05;;;;;;;;;;5404489;26;20031;-63
2024/04/20 09:22:19;;;;;;;4.63;2.38;;;;;;;;;;5407551;26;20035;-63
2024/04/20 09:24:46;;;;;;;5.28;2.33;;;;;;;;;;5405294;26;20035;-63
2024/04/20 09:27:12;;;;;;;4.88;2.20;;;;;;;;;;5409544;26;20047;-65
2024/04/20 09:29:39;;;;;;;6.00;2.38;;;;;;;;;;5406145;26;20028;-63
2024/04/20 09:32:06;;;;;;;5.70;2.13;;;;;;;;;;5407061;26;20051;-64
2024/04/20 09:34:32;;;;;;;6.47;2.90;;;;;;;;;;5405168;26;20028;-63
2024/04/20 09:36:58;;;;;;;5.70;2.95;;;;;;;;;;5402368;26;20047;-64
2024/04/20 09:39:25;;;;;;;4.80;2.72;;;;;;;;;;5407979;26;20044;-63
2024/04/20 09:41:51;;;;;;;5.97;2.80;;;;;;;;;;5406273;26;22232;-63
2024/04/20 09:44:18;;;;;;;5.30;2.97;;;;;;;;;;5405565;26;20368;-63
2024/04/20 09:46:49;;;;;;;4.32;2.90;;;;;;;;;;5395648;26;20054;-63
2024/04/20 09:49:15;;;;;;;5.95;2.97;;;;;;;;;;5394355;26;20036;-63
2024/04/20 09:52:03;;;;;;;7.32;2.55;;;;;;;;;;5398056;26;20031;-66
2024/04/20 09:54:39;;;;;;;7.07;2.92;;;;;;;;;;5409114;26;20027;-63
2024/04/20 09:57:07;;;;;;;9.07;2.53;;;;;;;;;;5401219;26;20388;-62
2024/04/20 09:59:35;;;;;;;5.18;2.70;;;;;;;;;;5381761;26;20035;-61
2024/04/20 10:02:02;;;;;;;5.28;3.13;;;;;;;;;;5395003;26;20499;-62
2024/04/20 10:04:30;;;;;;;6.10;3.00;;;;;;;;;;5410468;26;20047;-63
2024/04/20 10:06:57;;;;;;;7.35;3.10;;;;;;;;;;5403131;26;20032;-62
2024/04/20 10:09:25;;;;;;;6.30;2.90;;;;;;;;;;5378126;26;20044;-63
2024/04/20 10:11:52;;;;;;;4.10;2.58;;;;;;;;;;5407394;26;20516;-63
2024/04/20 10:14:18;;;;;;;4.72;2.40;;;;;;;;;;5406341;26;20036;-63
2024/04/20 10:16:44;;;;;;;4.90;2.63;;;;;;;;;;5404027;26;20067;-62
2024/04/20 10:19:10;;;;;;;5.78;2.65;;;;;;;;;;5414351;26;20032;-62
2024/04/20 10:21:39;;;;;;;3.15;2.60;;;;;;;;;;5405061;26;20007;-63
2024/04/20 10:24:08;;;;;;;4.72;2.50;;;;;;;;;;5396586;26;20043;-64
2024/04/20 10:26:34;;;;;;;6.90;2.40;;;;;;;;;;5400984;26;19999;-63
2024/04/20 10:29:08;;;;;;;5.75;2.90;;;;;;;;;;5370631;26;20007;-63
2024/04/20 10:31:36;;;;;;;9.13;3.50;;;;;;;;;;5406600;26;20035;-63
2024/04/20 10:34:02;;;;;;;6.80;4.00;;;;;;;;;;5408174;26;20039;-63
2024/04/20 10:36:28;;;;;;;5.72;3.03;;;;;;;;;;5411170;26;20500;-63
2024/04/20 10:39:25;;;;;;;5.63;3.30;;;;;;;;;;5407598;26;20032;-63
2024/04/20 10:41:51;;;;;;;4.68;2.80;;;;;;;;;;5405599;26;20106;-63
2024/04/20 10:44:17;;;;;;;8.23;3.30;;;;;;;;;;5411258;26;20036;-64
2024/04/20 10:46:53;;;;;;;4.03;2.53;;;;;;;;;;5406460;26;20039;-64
2024/04/20 10:49:21;;;;;;;3.85;2.60;;;;;;;;;;5400691;26;20017;-64
2024/04/20 10:51:58;;;;;;;4.80;2.60;;;;;;;;;;5370393;26;20039;-63
2024/04/20 10:54:25;;;;;;;3.10;2.40;;;;;;;;;;5408952;26;20031;-63
2024/04/20 10:56:53;;;;;;;5.88;2.58;;;;;;;;;;5411441;26;22302;-63
2024/04/20 10:59:21;;;;;;;6.10;2.55;;;;;;;;;;5411691;26;20039;-63
2024/04/20 11:01:47;;;;;;;5.70;3.15;;;;;;;;;;5410343;26;20050;-64
2024/04/20 11:04:14;;;;;;;4.63;3.10;;;;;;;;;;5408777;26;20390;-64
2024/04/20 11:06:40;;;;;;;4.32;2.53;;;;;;;;;;5411656;26;20047;-63
2024/04/20 11:09:09;;;;;;;4.28;3.22;;;;;;;;;;5413453;26;20039;-64
2024/04/20 11:11:36;;;;;;;;;;;;;;;;;;5389754;26;20027;-64
2024/04/20 11:14:03;;;;;;;4.35;2.70;;;;;;;;;;5416528;26;19925;-64
2024/04/20 11:16:30;;;;;;;5.90;3.38;;;;;;;;;;5420679;26;20031;-63
2024/04/20 11:18:57;;;;;;;5.90;2.70;;;;;;;;;;5412182;26;20035;-64
2024/04/20 11:21:24;;;;;;;4.03;2.90;;;;;;;;;;5413212;26;20031;-64
2024/04/20 11:23:51;;;;;;;4.97;2.83;;;;;;;;;;5410519;26;20047;-64
2024/04/20 11:26:17;;;;;;;9.68;3.17;;;;;;;;;;5377175;26;20040;-64
2024/04/20 11:28:43;;;;;;;5.70;3.20;;;;;;;;;;5404352;26;20043;-64
2024/04/20 11:31:10;;;;;;;5.10;2.50;;;;;;;;;;5404209;26;20036;-64
2024/04/20 11:33:36;;;;;;;4.35;2.95;;;;;;;;;;5404941;26;20043;-64
2024/04/20 11:36:07;;;;;;;3.28;2.10;;;;;;;;;;5411593;26;20043;-64
2024/04/20 11:38:33;;;;;;;3.35;2.33;;;;;;;;;;5410345;26;20031;-64
2024/04/20 11:40:59;;;;;;;3.58;2.42;;;;;;;;;;5410771;26;20074;-64
2024/04/20 11:43:26;;;;;;;5.57;2.65;;;;;;;;;;5398027;26;20020;-64
2024/04/20 11:45:53;;;;;;;3.25;2.30;;;;;;;;;;5404321;26;20144;-63
2024/04/20 11:48:25;;;;;;;3.15;2.10;;;;;;;;;;5390848;26;20380;-64
2024/04/20 11:51:01;;;;;;;3.97;2.53;;;;;;;;;;5395774;26;20060;-63
2024/04/20 11:56:23;;;;;;;2.97;2.00;;;;;;;;;;5418546;26;20036;-63
2024/04/20 11:58:50;;;;;;;;;;;;;;;;;;5406479;26;20027;-64
2024/04/20 12:01:16;;;;;;;6.18;2.90;;;;;;;;;;5409671;26;19953;-62
2024/04/20 12:03:49;;;;;;;7.70;3.53;;;;;;;;;;5408620;26;20284;-63
2024/04/20 12:06:16;;;;;;;2.80;2.38;;;;;;;;;;5410659;26;20027;-64
2024/04/20 12:08:43;;;;;;;11.07;7.00;;;;;;;;;;5410477;26;20034;-63
2024/04/20 12:11:10;;;;;;;4.22;2.58;;;;;;;;;;5407821;26;20036;-64
2024/04/20 12:13:36;;;;;;;4.28;2.75;;;;;;;;;;5398560;26;20043;-63
2024/04/20 12:16:03;;;;;;;3.83;2.67;;;;;;;;;;5409897;26;20027;-62
2024/04/20 12:18:29;;;;;;;3.15;2.47;;;;;;;;;;5407596;26;20040;-64
2024/04/20 12:20:55;;;;;;;3.75;2.35;;;;;;;;;;5380064;26;20023;-64
2024/04/20 12:23:21;;;;;;;9.23;2.80;;;;;;;;;;5381166;26;20511;-63
2024/04/20 12:25:49;;;;;;;4.30;2.50;;;;;;;;;;5381997;26;20039;-63
2024/04/20 12:28:16;;;;;;;5.22;2.20;;;;;;;;;;5405175;26;20024;-62
2024/04/20 12:30:42;;;;;;;5.25;2.55;;;;;;;;;;5368206;26;20026;-63
2024/04/20 12:33:09;;;;;;;4.47;2.55;;;;;;;;;;5411951;26;20515;-62
2024/04/20 12:35:35;;;;;;;5.00;2.80;;;;;;;;;;5408531;26;20031;-63
2024/04/20 12:38:03;;;;;;;5.05;2.25;;;;;;;;;;5402589;26;20036;-63
2024/04/20 12:40:29;;;;;;;3.92;1.85;;;;;;;;;;5409324;26;20035;-62
2024/04/20 12:42:55;;;;;;;4.68;2.15;;;;;;;;;;5403682;26;20040;-62
2024/04/20 12:45:23;;;;;;;2.20;2.00;;;;;;;;;;5408126;26;20411;-63
2024/04/20 12:47:50;;;;;;;5.45;2.28;;;;;;;;;;5384341;26;20047;-62
2024/04/20 12:50:16;;;;;;;3.80;2.38;;;;;;;;;;5409894;26;20043;-64
2024/04/20 12:52:42;;;;;;;2.65;1.98;;;;;;;;;;5411242;26;20488;-63
2024/04/20 12:55:09;;;;;;;4.50;2.22;;;;;;;;;;5411939;26;20023;-63
2024/04/20 12:57:36;;;;;;;5.93;2.58;;;;;;;;;;5410260;26;20051;-63
2024/04/20 13:00:02;;;;;;;4.15;2.00;;;;;;;;;;5397318;26;20382;-66
2024/04/20 13:02:29;;;;;;;6.70;2.05;;;;;;;;;;5408268;26;20032;-63
2024/04/20 13:04:55;;;;;;;2.92;1.98;;;;;;;;;;5419704;26;20032;-63
2024/04/20 13:07:21;;;;;;;4.20;1.85;;;;;;;;;;5422178;26;20039;-63
2024/04/20 13:09:52;;;;;;;4.40;2.17;;;;;;;;;;5426645;26;20013;-65
2024/04/20 13:12:18;;;;;;;5.97;2.00;;;;;;;;;;5424232;26;20494;-64
2024/04/20 13:14:48;;;;;;;5.50;2.17;;;;;;;;;;5407169;26;20000;-64
2024/04/20 13:17:15;;;;;;;2.75;1.75;;;;;;;;;;5411563;26;20130;-63
2024/04/20 13:19:43;;;;;;;6.35;2.10;;;;;;;;;;5401423;26;20053;-63
2024/04/20 13:22:09;;;;;;;4.05;1.98;;;;;;;;;;5402061;26;20031;-64
2024/04/20 13:24:35;;;;;;;3.38;1.80;;;;;;;;;;5407382;26;20035;-63
2024/04/20 13:27:02;;;;;;;3.10;1.90;;;;;;;;;;5415571;26;20027;-64
2024/04/20 13:29:28;;;;;;;3.45;1.90;;;;;;;;;;5412931;26;20028;-63
2024/04/20 13:31:54;;;;;;;2.88;1.83;;;;;;;;;;5408830;26;20522;-64
2024/04/20 13:34:20;;;;;;;3.53;2.03;;;;;;;;;;5376408;26;20032;-63
2024/04/20 13:36:46;;;;;;;3.13;1.70;;;;;;;;;;5402703;26;20028;-63
2024/04/20 13:39:13;;;;;;;2.25;1.40;;;;;;;;;;5410890;26;20363;-65
2024/04/20 13:41:40;;;;;;;1.92;1.60;;;;;;;;;;5397404;26;20007;-65
2024/04/20 13:44:07;;;;;;;3.58;1.50;;;;;;;;;;5405097;26;20029;-64
2024/04/20 13:46:33;;;;;;;2.75;1.50;;;;;;;;;;5407645;26;20040;-63
2024/04/20 13:48:59;;;;;;;3.10;1.40;;;;;;;;;;5409237;26;20039;-63
2024/04/20 13:51:25;;;;;;;4.57;1.85;;;;;;;;;;5375237;26;20478;-64
2024/04/20 13:53:52;;;;;;;2.80;1.30;;;;;;;;;;5410490;26;20031;-64
2024/04/20 13:56:21;;;;;;;2.60;1.52;;;;;;;;;;5410625;26;20031;-66
2024/04/20 13:58:47;;;;;;;2.55;1.70;;;;;;;;;;5394898;26;20039;-63
2024/04/20 14:01:13;;;;;;;3.00;1.88;;;;;;;;;;5396184;26;20039;-64
2024/04/20 14:03:42;;;;;;;2.90;1.80;;;;;;;;;;5406819;26;20035;-64
2024/04/20 14:06:10;;;;;;;1.80;1.40;;;;;;;;;;5411664;26;20394;-63
2024/04/20 14:08:36;;;;;;;2.42;1.58;;;;;;;;;;5413313;26;20031;-61
2024/04/20 14:11:03;;;;;;;2.55;1.60;;;;;;;;;;5407332;26;20056;-63
2024/04/20 14:13:30;;;;;;;4.28;1.85;;;;;;;;;;5407295;26;20028;-63
2024/04/20 14:16:04;;;;;;;5.53;2.38;;;;;;;;;;5409794;26;20028;-63
2024/04/20 14:18:30;;;;;;;5.65;2.85;;;;;;;;;;5410956;26;20031;-64
2024/04/20 14:20:57;;;;;;;3.25;1.63;;;;;;;;;;5410898;26;20325;-64
2024/04/20 14:23:23;;;;;;;2.70;1.70;;;;;;;;;;5410302;26;20028;-63
2024/04/20 14:25:59;;;;;;;2.72;1.80;;;;;;;;;;5404166;26;20048;-62
2024/04/20 14:28:25;;;;;;;2.53;1.85;;;;;;;;;;5413226;26;20035;-63
2024/04/20 14:31:09;;;;;;;2.72;1.80;;;;;;;;;;5410113;26;20031;-63
2024/04/20 14:33:36;;;;;;;24.17;8.10;;;;;;;;;;5404096;26;20031;-62
2024/04/20 14:36:02;;;;;;;8.25;3.58;;;;;;;;;;5407278;26;20035;-63
2024/04/20 14:38:28;;;;;;;2.63;1.55;;;;;;;;;;5407109;26;20036;-63
2024/04/20 14:40:55;;;;;;;18.95;7.15;;;;;;;;;;5408528;26;20043;-63
2024/04/20 14:43:23;;;;;;;7.65;3.38;;;;;;;;;;5409964;26;20035;-62